Flight Track Log - Related Links

Times and Time Zones

All times are in EDT time to prevent confusion due to time zone crossing. See the MMN26 flight status page for this flight to view local times or setup timezone preferences in your user account.

Time Position Orientation Groundspeed Altitude Reporting Facility
EDT Latitude Longitude Course Direction KTS MPH feet Rate Location/Type
Wed 08:38:30 AM 42.4667 -71.2500 194° South 180 207 1,400  Level KA90
Wed 08:39:42 AM 42.4167 -71.2667 194° South 196 226 4,100 2,426 Climbing KA90
Wed 08:41:38 AM 42.3836 -71.4394 256° West 254 292 9,000 2,523 Climbing Boston Center
Wed 08:42:38 AM 42.3656 -71.5436 257° West 282 325 11,500 2,400 Climbing Boston Center
Wed 08:43:38 AM 42.3436 -71.6647 256° West 318 366 13,800 1,700 Climbing Boston Center
Wed 08:44:38 AM 42.3256 -71.7717 257° West 318 366 14,900 1,100 Climbing Boston Center
Wed 08:45:38 AM 42.2992 -71.9292 257° West 369 425 16,000 550 Climbing Boston Center
Wed 08:46:38 AM 42.2747 -72.0614 256° West 404 465 16,000  Level Boston Center
Wed 08:47:38 AM 42.2481 -72.2242 258° West 413 475 16,000  Level Boston Center
Wed 08:48:38 AM 42.2233 -72.3589 256° West 413 475 16,000  Level Boston Center
Wed 08:49:38 AM 42.1961 -72.5214 257° West 413 475 16,000  Level Boston Center
Wed 08:50:38 AM 42.1731 -72.6531 257° West 413 475 16,000  Level Boston Center
Wed 08:51:50 AM 42.1581 -72.8042 262° West 413 475 16,000  Level Boston Center
Wed 08:52:50 AM 42.1428 -72.9944 264° West 408 470 16,000  Level Boston Center
Wed 08:53:50 AM 42.1086 -73.1369 252° West 396 456 16,000  Level Boston Center
Wed 08:54:50 AM 42.0828 -73.2514 253° West 402 463 16,000  Level Boston Center
Wed 08:55:50 AM 42.0419 -73.4100 251° West 402 463 16,000  Level Boston Center
Wed 08:56:50 AM 42.0072 -73.5492 251° West 402 463 16,000  Level Boston Center
Wed 08:57:50 AM 41.9725 -73.6911 252° West 402 463 16,000  Level Boston Center
Wed 08:58:50 AM 41.9375 -73.8300 251° West 402 463 16,000  Level Boston Center
Wed 08:59:50 AM 41.9044 -73.9686 252° West 402 463 16,000  Level Boston Center
Wed 09:00:50 AM 41.8692 -74.1128 252° West 402 463 16,000  Level Boston Center
Wed 09:01:50 AM 41.8336 -74.2483 251° West 402 463 16,000 -300 Level Boston Center
Wed 09:02:50 AM 41.7981 -74.3867 251° West 402 463 15,400 -1,250 Descending Boston Center
Wed 09:03:50 AM 41.7394 -74.5156 239° Southwest 374 430 13,500 -1,950 Descending Boston Center
Wed 09:04:50 AM 41.6389 -74.5483 194° South 345 397 11,500 -2,000 Descending Boston Center
Wed 09:05:50 AM 41.5406 -74.5644 187° South 344 396 9,500 -1,900 Descending Boston Center
Wed 09:06:50 AM 41.4653 -74.5814 190° South 328 377 7,700 -1,438 Descending Boston Center
Wed 09:08:16 AM 41.3500 -74.6167 193° South 274 315 6,000 -740 Descending New York TRACON
Wed 09:09:16 AM 41.2833 -74.6167 180° South 272 313 5,900 -789 Descending New York TRACON
Wed 09:10:10 AM 41.2000 -74.6167 180° South 270 311 4,500 -1,000 Descending New York TRACON
Wed 09:11:10 AM 41.1333 -74.6167 180° South 272 313 4,000 -250 Descending New York TRACON
Wed 09:12:10 AM 41.0500 -74.6167 180° South 271 312 4,000  Level New York TRACON
Wed 09:13:10 AM 40.9833 -74.6167 180° South 271 312 4,000  Level New York TRACON
Wed 09:14:10 AM 40.9000 -74.6000 171° South 275 316 4,000 -50 Level New York TRACON
Wed 09:15:10 AM 40.8333 -74.6000 180° South 247 284 3,900 -500 Descending New York TRACON
Wed 09:16:10 AM 40.7833 -74.5833 166° South 212 244 3,000 -450 Descending New York TRACON
Wed 09:17:10 AM 40.7333 -74.5333 143° Southeast 214 246 3,000  Level New York TRACON
Wed 09:18:05 AM 40.7000 -74.4667 123° Southeast 208 239 3,000  Level New York TRACON
Wed 09:19:05 AM 40.6833 -74.4000 108° East 206 237 3,000 -50 Level New York TRACON
Wed 09:20:04 AM 40.6667 -74.3333 108° East 213 245 2,900 -504 Descending New York TRACON
Wed 09:21:04 AM 40.7000 -74.2833 49° Northeast 193 222 2,000 -700 Descending New York TRACON
Wed 09:22:04 AM 40.7333 -74.2333 49° Northeast 172 198 1,500 -200 Descending New York TRACON
Wed 09:23:04 AM 40.7667 -74.1833 49° Northeast 174 200 1,600  Climbing New York TRACON
Wed 09:24:04 AM 40.8000 -74.1333 49° Northeast 176 203 1,500 -474 Descending New York TRACON
Wed 09:24:58 AM 40.8333 -74.1000 37° Northeast 152 175 700 -889 Descending New York TRACON

Login

Don't have an account? Register now (free) for customized features, flight alerts, and more!